createdAt,value
2019-01-15T00:02:19.253Z,87.70
2019-01-15T00:12:22.829Z,87.90
2019-01-15T00:22:26.397Z,88.10
2019-01-15T00:32:29.973Z,88.20
2019-01-15T00:42:33.621Z,88.50
2019-01-15T00:52:37.190Z,89.10
2019-01-15T01:02:40.770Z,89.20
2019-01-15T01:12:44.366Z,89.30
2019-01-15T01:22:47.937Z,89.50
2019-01-15T01:32:51.543Z,89.80
2019-01-15T01:42:55.129Z,90.00
2019-01-15T01:52:58.702Z,90.00
2019-01-15T02:03:02.283Z,90.10
2019-01-15T02:13:05.841Z,90.20
2019-01-15T02:23:09.393Z,90.30
2019-01-15T02:33:13.006Z,90.60
2019-01-15T02:43:16.574Z,90.50
2019-01-15T02:53:20.168Z,90.60
2019-01-15T03:03:23.765Z,90.60
2019-01-15T03:13:27.342Z,90.30
2019-01-15T03:23:30.942Z,90.40
2019-01-15T03:33:34.627Z,90.40
2019-01-15T03:43:38.200Z,90.40
2019-01-15T03:53:41.810Z,90.40
2019-01-15T04:03:45.493Z,90.60
2019-01-15T04:13:49.092Z,90.70
2019-01-15T04:23:52.742Z,90.70
2019-01-15T04:33:56.318Z,90.70
2019-01-15T04:43:59.911Z,90.70
2019-01-15T04:54:03.763Z,90.70
2019-01-15T05:04:07.407Z,90.60
2019-01-15T05:14:10.979Z,90.40
2019-01-15T05:24:14.570Z,90.80
2019-01-15T05:34:18.152Z,91.80
2019-01-15T05:44:21.756Z,91.70
2019-01-15T05:54:25.373Z,92.00
2019-01-15T06:04:28.971Z,92.60
2019-01-15T06:14:32.585Z,92.50
2019-01-15T06:24:36.160Z,92.90
2019-01-15T06:34:39.730Z,93.00
2019-01-15T06:44:43.327Z,93.30
2019-01-15T06:54:46.943Z,93.40
2019-01-15T07:04:50.528Z,93.40
2019-01-15T07:14:54.114Z,93.40
2019-01-15T07:24:57.693Z,93.90
2019-01-15T07:35:01.271Z,94.10
2019-01-15T07:45:06.178Z,94.30
2019-01-15T07:55:10.395Z,94.20
2019-01-15T08:05:14.902Z,94.30
2019-01-15T08:15:20.405Z,94.40
2019-01-15T08:25:23.981Z,95.40
2019-01-15T08:35:27.568Z,94.80
2019-01-15T08:45:31.133Z,94.70
2019-01-15T08:55:34.702Z,94.50
2019-01-15T09:05:38.286Z,94.60
2019-01-15T09:15:41.853Z,94.70
2019-01-15T09:25:45.433Z,94.90
2019-01-15T09:35:49.527Z,94.90
2019-01-15T09:45:53.297Z,95.10
2019-01-15T09:55:56.864Z,95.20
2019-01-15T10:06:00.447Z,95.20
2019-01-15T10:16:04.042Z,95.20
2019-01-15T10:26:07.610Z,95.30
2019-01-15T10:36:10.067Z,95.40
2019-01-15T10:46:13.637Z,95.50
2019-01-15T10:56:17.207Z,95.70
2019-01-15T11:06:20.817Z,95.80
2019-01-15T11:16:24.390Z,95.80
2019-01-15T11:26:27.975Z,96.20
2019-01-15T11:36:31.555Z,96.20
2019-01-15T11:46:35.126Z,96.20
2019-01-15T11:56:38.750Z,96.10
2019-01-15T12:07:04.219Z,96.20
2019-01-15T12:17:26.890Z,96.40
2019-01-15T12:27:55.370Z,96.40
2019-01-15T12:38:20.909Z,96.40
2019-01-15T12:48:55.950Z,96.40
2019-01-15T12:59:24.497Z,96.50
2019-01-15T13:09:50.618Z,96.60
2019-01-15T13:20:05.366Z,96.60
2019-01-15T13:30:45.806Z,96.60
2019-01-15T13:41:02.404Z,96.70
2019-01-15T13:51:46.721Z,96.70
2019-01-15T14:02:15.258Z,96.60
2019-01-15T14:12:29.942Z,96.80
2019-01-15T14:22:55.106Z,96.90
2019-01-15T14:33:13.181Z,97.00
2019-01-15T14:43:41.782Z,97.00
2019-01-15T14:53:59.910Z,97.00
2019-01-15T15:04:18.729Z,97.10
2019-01-15T15:14:48.475Z,97.60
2019-01-15T15:25:11.160Z,97.80
2019-01-15T15:35:47.546Z,97.80
2019-01-15T15:46:22.398Z,97.90
2019-01-15T15:56:43.790Z,98.00
2019-01-15T16:07:05.420Z,98.00
2019-01-15T16:17:28.090Z,98.00
2019-01-15T16:27:51.110Z,98.10
2019-01-15T16:38:12.958Z,98.10
2019-01-15T16:48:35.282Z,98.00
2019-01-15T16:58:49.055Z,98.00
2019-01-15T17:09:10.430Z,98.00
2019-01-15T17:19:30.466Z,98.00
2019-01-15T17:29:53.166Z,98.10
2019-01-15T17:40:15.838Z,98.00
2019-01-15T17:50:45.722Z,98.00
2019-01-15T18:01:14.575Z,98.00
2019-01-15T18:11:44.018Z,98.10
2019-01-15T18:21:57.426Z,98.00
2019-01-15T18:32:24.903Z,98.00
2019-01-15T18:42:50.493Z,98.10
2019-01-15T18:53:03.950Z,98.20
2019-01-15T19:03:38.459Z,98.20
2019-01-15T19:13:57.937Z,98.20
2019-01-15T19:24:19.427Z,98.10
2019-01-15T19:34:41.346Z,98.20
2019-01-15T19:44:55.481Z,98.20
2019-01-15T19:55:21.178Z,98.20
2019-01-15T20:05:51.505Z,98.40
2019-01-15T20:16:14.183Z,98.40
2019-01-15T20:26:26.170Z,98.50
2019-01-15T20:36:49.270Z,98.50
2019-01-15T20:47:25.548Z,99.00
2019-01-15T20:57:48.438Z,99.10
2019-01-15T21:08:03.826Z,99.00
2019-01-15T21:18:29.789Z,99.40
2019-01-15T21:29:01.499Z,99.50
2019-01-15T21:39:31.873Z,99.40
2019-01-15T21:50:06.946Z,99.20
2019-01-15T22:00:36.406Z,99.20
2019-01-15T22:11:01.902Z,99.20
2019-01-15T22:21:36.686Z,99.10
2019-01-15T22:32:11.466Z,99.20
2019-01-15T22:42:31.674Z,99.20
2019-01-15T22:52:57.370Z,99.00
2019-01-15T23:03:09.187Z,99.10
2019-01-15T23:13:30.757Z,99.20
2019-01-15T23:23:55.909Z,99.20
2019-01-15T23:34:18.586Z,99.10
2019-01-15T23:44:40.232Z,99.20
2019-01-15T23:55:11.999Z,99.30
